sensor_id;sensor_type;location;lat;lon;timestamp;P1;durP1;ratioP1;P2;durP2;ratioP2
58661;SDS011;44432;49.786;22.760;2023-03-01T00:02:17;67.80;;;35.30;;
58661;SDS011;44432;49.786;22.760;2023-03-01T00:04:48;62.50;;;32.60;;
58661;SDS011;44432;49.786;22.760;2023-03-01T00:07:19;66.00;;;32.70;;
58661;SDS011;44432;49.786;22.760;2023-03-01T00:09:50;58.90;;;32.00;;
58661;SDS011;44432;49.786;22.760;2023-03-01T00:12:21;62.40;;;32.50;;
58661;SDS011;44432;49.786;22.760;2023-03-01T00:14:52;58.50;;;32.90;;
58661;SDS011;44432;49.786;22.760;2023-03-01T00:17:23;60.00;;;32.50;;
58661;SDS011;44432;49.786;22.760;2023-03-01T00:19:53;61.20;;;33.20;;
58661;SDS011;44432;49.786;22.760;2023-03-01T00:22:24;65.60;;;32.60;;
58661;SDS011;44432;49.786;22.760;2023-03-01T00:24:57;66.50;;;34.00;;
58661;SDS011;44432;49.786;22.760;2023-03-01T00:27:27;60.40;;;33.30;;
58661;SDS011;44432;49.786;22.760;2023-03-01T00:29:58;65.50;;;32.50;;
58661;SDS011;44432;49.786;22.760;2023-03-01T00:32:28;62.50;;;33.10;;
58661;SDS011;44432;49.786;22.760;2023-03-01T00:34:59;59.50;;;32.50;;
58661;SDS011;44432;49.786;22.760;2023-03-01T00:37:30;62.90;;;33.70;;
58661;SDS011;44432;49.786;22.760;2023-03-01T00:40:00;59.70;;;31.00;;
58661;SDS011;44432;49.786;22.760;2023-03-01T00:42:33;61.10;;;32.80;;
58661;SDS011;44432;49.786;22.760;2023-03-01T00:45:05;57.80;;;32.40;;
58661;SDS011;44432;49.786;22.760;2023-03-01T00:47:37;60.50;;;31.40;;
58661;SDS011;44432;49.786;22.760;2023-03-01T00:50:08;59.60;;;31.30;;
58661;SDS011;44432;49.786;22.760;2023-03-01T00:52:40;56.60;;;30.30;;
58661;SDS011;44432;49.786;22.760;2023-03-01T00:55:11;50.80;;;29.00;;
58661;SDS011;44432;49.786;22.760;2023-03-01T00:57:41;49.10;;;27.80;;
58661;SDS011;44432;49.786;22.760;2023-03-01T01:00:13;50.80;;;28.80;;
58661;SDS011;44432;49.786;22.760;2023-03-01T01:02:44;74.10;;;36.60;;
58661;SDS011;44432;49.786;22.760;2023-03-01T01:05:15;61.80;;;33.60;;
58661;SDS011;44432;49.786;22.760;2023-03-01T01:07:48;48.30;;;27.50;;
58661;SDS011;44432;49.786;22.760;2023-03-01T01:10:19;47.10;;;26.20;;
58661;SDS011;44432;49.786;22.760;2023-03-01T01:12:49;52.90;;;25.50;;
58661;SDS011;44432;49.786;22.760;2023-03-01T01:15:20;47.70;;;27.70;;
58661;SDS011;44432;49.786;22.760;2023-03-01T01:17:51;53.60;;;27.50;;
58661;SDS011;44432;49.786;22.760;2023-03-01T01:20:22;51.50;;;27.90;;
58661;SDS011;44432;49.786;22.760;2023-03-01T01:22:52;50.30;;;27.10;;
58661;SDS011;44432;49.786;22.760;2023-03-01T01:25:23;54.50;;;28.80;;
58661;SDS011;44432;49.786;22.760;2023-03-01T01:27:54;54.60;;;28.80;;
58661;SDS011;44432;49.786;22.760;2023-03-01T01:30:25;47.20;;;26.10;;
58661;SDS011;44432;49.786;22.760;2023-03-01T01:32:55;48.20;;;26.20;;
58661;SDS011;44432;49.786;22.760;2023-03-01T01:35:27;46.10;;;25.10;;
58661;SDS011;44432;49.786;22.760;2023-03-01T01:37:57;49.90;;;25.90;;
58661;SDS011;44432;49.786;22.760;2023-03-01T01:40:28;44.00;;;23.80;;
58661;SDS011;44432;49.786;22.760;2023-03-01T01:42:59;51.40;;;27.40;;
58661;SDS011;44432;49.786;22.760;2023-03-01T01:45:31;45.70;;;26.00;;
58661;SDS011;44432;49.786;22.760;2023-03-01T01:48:04;49.40;;;26.40;;
58661;SDS011;44432;49.786;22.760;2023-03-01T01:50:41;39.80;;;21.50;;
58661;SDS011;44432;49.786;22.760;2023-03-01T01:53:14;43.30;;;21.50;;
58661;SDS011;44432;49.786;22.760;2023-03-01T01:55:49;44.80;;;23.60;;
58661;SDS011;44432;49.786;22.760;2023-03-01T01:58:25;44.80;;;24.40;;
58661;SDS011;44432;49.786;22.760;2023-03-01T02:00:58;42.70;;;25.20;;
58661;SDS011;44432;49.786;22.760;2023-03-01T02:03:29;49.60;;;26.60;;
58661;SDS011;44432;49.786;22.760;2023-03-01T02:06:06;46.80;;;25.50;;
58661;SDS011;44432;49.786;22.760;2023-03-01T02:08:41;42.20;;;22.90;;
58661;SDS011;44432;49.786;22.760;2023-03-01T02:11:13;39.10;;;21.60;;
58661;SDS011;44432;49.786;22.760;2023-03-01T02:13:44;42.00;;;22.60;;
58661;SDS011;44432;49.786;22.760;2023-03-01T02:16:18;39.60;;;21.70;;
58661;SDS011;44432;49.786;22.760;2023-03-01T02:18:49;45.30;;;22.90;;
58661;SDS011;44432;49.786;22.760;2023-03-01T02:21:35;40.10;;;22.70;;
58661;SDS011;44432;49.786;22.760;2023-03-01T02:24:17;40.50;;;22.30;;
58661;SDS011;44432;49.786;22.760;2023-03-01T02:26:56;38.70;;;22.20;;
58661;SDS011;44432;49.786;22.760;2023-03-01T02:29:29;41.20;;;22.10;;
58661;SDS011;44432;49.786;22.760;2023-03-01T02:32:00;35.60;;;20.90;;
58661;SDS011;44432;49.786;22.760;2023-03-01T02:34:33;41.40;;;22.10;;
58661;SDS011;44432;49.786;22.760;2023-03-01T02:37:05;37.70;;;20.70;;
58661;SDS011;44432;49.786;22.760;2023-03-01T02:39:40;39.50;;;21.90;;
58661;SDS011;44432;49.786;22.760;2023-03-01T02:42:16;41.70;;;21.70;;
58661;SDS011;44432;49.786;22.760;2023-03-01T02:44:51;42.20;;;22.50;;
58661;SDS011;44432;49.786;22.760;2023-03-01T02:47:22;45.80;;;23.40;;
58661;SDS011;44432;49.786;22.760;2023-03-01T02:49:53;41.00;;;21.20;;
58661;SDS011;44432;49.786;22.760;2023-03-01T02:52:33;44.40;;;22.40;;
58661;SDS011;44432;49.786;22.760;2023-03-01T02:55:11;40.50;;;22.00;;
58661;SDS011;44432;49.786;22.760;2023-03-01T03:00:14;40.40;;;20.60;;
58661;SDS011;44432;49.786;22.760;2023-03-01T03:02:50;42.50;;;22.00;;
58661;SDS011;44432;49.786;22.760;2023-03-01T03:05:22;41.90;;;22.20;;
58661;SDS011;44432;49.786;22.760;2023-03-01T03:07:55;43.60;;;21.90;;
58661;SDS011;44432;49.786;22.760;2023-03-01T03:10:28;38.80;;;21.40;;
58661;SDS011;44432;49.786;22.760;2023-03-01T03:13:00;38.30;;;20.60;;
58661;SDS011;44432;49.786;22.760;2023-03-01T03:15:32;41.70;;;22.10;;
58661;SDS011;44432;49.786;22.760;2023-03-01T03:18:04;42.20;;;22.60;;
58661;SDS011;44432;49.786;22.760;2023-03-01T03:20:37;41.30;;;21.90;;
58661;SDS011;44432;49.786;22.760;2023-03-01T03:23:08;40.90;;;22.80;;
58661;SDS011;44432;49.786;22.760;2023-03-01T03:25:39;41.70;;;22.70;;
58661;SDS011;44432;49.786;22.760;2023-03-01T03:28:09;42.80;;;21.40;;
58661;SDS011;44432;49.786;22.760;2023-03-01T03:30:40;44.00;;;21.90;;
58661;SDS011;44432;49.786;22.760;2023-03-01T03:33:12;36.60;;;21.60;;
58661;SDS011;44432;49.786;22.760;2023-03-01T03:35:43;39.70;;;21.40;;
58661;SDS011;44432;49.786;22.760;2023-03-01T03:38:15;42.80;;;21.00;;
58661;SDS011;44432;49.786;22.760;2023-03-01T03:40:50;36.70;;;19.40;;
58661;SDS011;44432;49.786;22.760;2023-03-01T03:43:30;38.50;;;20.60;;
58661;SDS011;44432;49.786;22.760;2023-03-01T03:46:03;36.20;;;19.10;;
58661;SDS011;44432;49.786;22.760;2023-03-01T03:48:35;39.40;;;19.80;;
58661;SDS011;44432;49.786;22.760;2023-03-01T03:51:09;41.60;;;21.90;;
58661;SDS011;44432;49.786;22.760;2023-03-01T03:53:40;35.20;;;18.90;;
58661;SDS011;44432;49.786;22.760;2023-03-01T03:56:12;38.20;;;20.90;;
58661;SDS011;44432;49.786;22.760;2023-03-01T03:58:42;40.30;;;21.00;;
58661;SDS011;44432;49.786;22.760;2023-03-01T04:01:13;40.10;;;21.00;;
58661;SDS011;44432;49.786;22.760;2023-03-01T04:03:44;35.10;;;19.40;;
58661;SDS011;44432;49.786;22.760;2023-03-01T04:06:15;43.10;;;23.30;;
58661;SDS011;44432;49.786;22.760;2023-03-01T04:08:45;39.80;;;21.30;;
58661;SDS011;44432;49.786;22.760;2023-03-01T04:11:18;38.00;;;21.60;;
58661;SDS011;44432;49.786;22.760;2023-03-01T04:13:56;39.90;;;22.30;;
58661;SDS011;44432;49.786;22.760;2023-03-01T04:16:27;41.80;;;23.10;;
58661;SDS011;44432;49.786;22.760;2023-03-01T04:18:58;40.10;;;21.90;;
58661;SDS011;44432;49.786;22.760;2023-03-01T04:21:29;37.00;;;19.60;;
58661;SDS011;44432;49.786;22.760;2023-03-01T04:23:59;35.90;;;20.50;;
58661;SDS011;44432;49.786;22.760;2023-03-01T04:26:31;38.40;;;20.30;;
58661;SDS011;44432;49.786;22.760;2023-03-01T04:29:02;40.60;;;22.40;;
58661;SDS011;44432;49.786;22.760;2023-03-01T04:31:32;39.80;;;20.80;;
58661;SDS011;44432;49.786;22.760;2023-03-01T04:34:03;37.70;;;21.40;;
58661;SDS011;44432;49.786;22.760;2023-03-01T04:36:34;45.20;;;20.00;;
58661;SDS011;44432;49.786;22.760;2023-03-01T04:39:04;40.90;;;21.50;;
58661;SDS011;44432;49.786;22.760;2023-03-01T04:41:40;36.60;;;18.60;;
58661;SDS011;44432;49.786;22.760;2023-03-01T04:44:11;34.40;;;19.10;;
58661;SDS011;44432;49.786;22.760;2023-03-01T04:46:42;34.20;;;19.40;;
58661;SDS011;44432;49.786;22.760;2023-03-01T04:49:13;35.20;;;19.60;;
58661;SDS011;44432;49.786;22.760;2023-03-01T04:51:44;37.80;;;22.20;;
58661;SDS011;44432;49.786;22.760;2023-03-01T04:54:14;35.70;;;19.20;;
58661;SDS011;44432;49.786;22.760;2023-03-01T04:56:45;35.70;;;19.40;;
58661;SDS011;44432;49.786;22.760;2023-03-01T04:59:16;44.30;;;23.60;;
58661;SDS011;44432;49.786;22.760;2023-03-01T05:01:50;47.30;;;24.00;;
58661;SDS011;44432;49.786;22.760;2023-03-01T05:04:23;84.10;;;37.10;;
58661;SDS011;44432;49.786;22.760;2023-03-01T05:06:54;64.30;;;31.80;;
58661;SDS011;44432;49.786;22.760;2023-03-01T05:09:26;72.30;;;31.90;;
58661;SDS011;44432;49.786;22.760;2023-03-01T05:11:56;61.60;;;29.30;;
58661;SDS011;44432;49.786;22.760;2023-03-01T05:14:27;163.90;;;68.50;;
58661;SDS011;44432;49.786;22.760;2023-03-01T05:16:58;88.80;;;38.10;;
58661;SDS011;44432;49.786;22.760;2023-03-01T05:19:31;60.70;;;29.10;;
58661;SDS011;44432;49.786;22.760;2023-03-01T05:22:02;77.60;;;34.70;;
58661;SDS011;44432;49.786;22.760;2023-03-01T05:24:34;64.70;;;28.80;;
58661;SDS011;44432;49.786;22.760;2023-03-01T05:27:06;53.40;;;26.20;;
58661;SDS011;44432;49.786;22.760;2023-03-01T05:29:37;48.70;;;23.30;;
58661;SDS011;44432;49.786;22.760;2023-03-01T05:32:07;42.00;;;21.80;;
58661;SDS011;44432;49.786;22.760;2023-03-01T05:34:43;52.40;;;24.20;;
58661;SDS011;44432;49.786;22.760;2023-03-01T05:37:14;60.50;;;27.20;;
58661;SDS011;44432;49.786;22.760;2023-03-01T05:39:45;41.50;;;22.90;;
58661;SDS011;44432;49.786;22.760;2023-03-01T05:42:18;56.70;;;26.40;;
58661;SDS011;44432;49.786;22.760;2023-03-01T05:44:48;45.40;;;22.10;;
58661;SDS011;44432;49.786;22.760;2023-03-01T05:47:19;42.60;;;23.30;;
58661;SDS011;44432;49.786;22.760;2023-03-01T05:49:50;47.30;;;23.00;;
58661;SDS011;44432;49.786;22.760;2023-03-01T05:52:20;44.70;;;24.10;;
58661;SDS011;44432;49.786;22.760;2023-03-01T05:54:51;53.60;;;26.20;;
58661;SDS011;44432;49.786;22.760;2023-03-01T05:57:23;57.10;;;28.20;;
58661;SDS011;44432;49.786;22.760;2023-03-01T05:59:53;51.20;;;25.60;;
58661;SDS011;44432;49.786;22.760;2023-03-01T06:02:24;64.50;;;31.30;;
58661;SDS011;44432;49.786;22.760;2023-03-01T06:04:54;48.40;;;27.10;;
58661;SDS011;44432;49.786;22.760;2023-03-01T06:07:25;53.10;;;27.40;;
58661;SDS011;44432;49.786;22.760;2023-03-01T06:09:56;48.80;;;24.50;;
58661;SDS011;44432;49.786;22.760;2023-03-01T06:12:27;62.60;;;29.00;;
58661;SDS011;44432;49.786;22.760;2023-03-01T06:15:00;50.40;;;26.40;;
58661;SDS011;44432;49.786;22.760;2023-03-01T06:17:32;46.70;;;25.20;;
58661;SDS011;44432;49.786;22.760;2023-03-01T06:20:07;50.90;;;25.60;;
58661;SDS011;44432;49.786;22.760;2023-03-01T06:22:40;48.40;;;26.10;;
58661;SDS011;44432;49.786;22.760;2023-03-01T06:25:12;48.20;;;27.20;;
58661;SDS011;44432;49.786;22.760;2023-03-01T06:27:45;52.90;;;28.80;;
58661;SDS011;44432;49.786;22.760;2023-03-01T06:30:17;50.70;;;27.50;;
58661;SDS011;44432;49.786;22.760;2023-03-01T06:32:49;66.60;;;35.60;;
58661;SDS011;44432;49.786;22.760;2023-03-01T06:35:20;62.20;;;32.60;;
58661;SDS011;44432;49.786;22.760;2023-03-01T06:37:50;58.40;;;28.90;;
58661;SDS011;44432;49.786;22.760;2023-03-01T06:40:21;52.90;;;28.90;;
58661;SDS011;44432;49.786;22.760;2023-03-01T06:42:52;59.50;;;31.00;;
58661;SDS011;44432;49.786;22.760;2023-03-01T06:45:23;65.80;;;32.90;;
58661;SDS011;44432;49.786;22.760;2023-03-01T06:47:57;69.20;;;33.50;;
58661;SDS011;44432;49.786;22.760;2023-03-01T06:50:33;82.20;;;38.80;;
58661;SDS011;44432;49.786;22.760;2023-03-01T06:53:04;70.20;;;37.20;;
58661;SDS011;44432;49.786;22.760;2023-03-01T06:55:35;72.70;;;36.50;;
58661;SDS011;44432;49.786;22.760;2023-03-01T06:58:05;66.20;;;36.30;;
58661;SDS011;44432;49.786;22.760;2023-03-01T07:00:37;66.10;;;35.70;;
58661;SDS011;44432;49.786;22.760;2023-03-01T07:03:10;66.60;;;32.80;;
58661;SDS011;44432;49.786;22.760;2023-03-01T07:05:41;72.70;;;33.90;;
58661;SDS011;44432;49.786;22.760;2023-03-01T07:08:12;62.00;;;32.90;;
58661;SDS011;44432;49.786;22.760;2023-03-01T07:10:42;56.80;;;29.90;;
58661;SDS011;44432;49.786;22.760;2023-03-01T07:13:13;55.40;;;29.90;;
58661;SDS011;44432;49.786;22.760;2023-03-01T07:15:44;54.60;;;30.40;;
58661;SDS011;44432;49.786;22.760;2023-03-01T07:18:14;48.70;;;24.60;;
58661;SDS011;44432;49.786;22.760;2023-03-01T07:20:45;40.80;;;22.80;;
58661;SDS011;44432;49.786;22.760;2023-03-01T07:23:16;43.20;;;24.20;;
58661;SDS011;44432;49.786;22.760;2023-03-01T07:25:51;45.20;;;23.90;;
58661;SDS011;44432;49.786;22.760;2023-03-01T07:28:23;43.10;;;24.00;;
58661;SDS011;44432;49.786;22.760;2023-03-01T07:30:55;39.40;;;24.00;;
58661;SDS011;44432;49.786;22.760;2023-03-01T07:33:29;42.30;;;24.30;;
58661;SDS011;44432;49.786;22.760;2023-03-01T07:36:00;40.10;;;22.40;;
58661;SDS011;44432;49.786;22.760;2023-03-01T07:38:32;48.00;;;25.80;;
58661;SDS011;44432;49.786;22.760;2023-03-01T07:41:03;44.70;;;26.40;;
58661;SDS011;44432;49.786;22.760;2023-03-01T07:43:34;47.10;;;24.60;;
58661;SDS011;44432;49.786;22.760;2023-03-01T07:46:05;38.60;;;20.10;;
58661;SDS011;44432;49.786;22.760;2023-03-01T07:48:36;48.80;;;19.90;;
58661;SDS011;44432;49.786;22.760;2023-03-01T07:51:07;34.70;;;19.80;;
58661;SDS011;44432;49.786;22.760;2023-03-01T07:53:38;36.40;;;19.10;;
58661;SDS011;44432;49.786;22.760;2023-03-01T07:56:10;36.10;;;22.00;;
58661;SDS011;44432;49.786;22.760;2023-03-01T07:58:44;46.70;;;24.70;;
58661;SDS011;44432;49.786;22.760;2023-03-01T08:01:15;33.20;;;19.60;;
58661;SDS011;44432;49.786;22.760;2023-03-01T08:03:47;40.00;;;22.20;;
58661;SDS011;44432;49.786;22.760;2023-03-01T08:06:18;39.00;;;21.40;;
58661;SDS011;44432;49.786;22.760;2023-03-01T08:08:49;39.60;;;21.20;;
58661;SDS011;44432;49.786;22.760;2023-03-01T08:11:19;32.80;;;19.00;;
58661;SDS011;44432;49.786;22.760;2023-03-01T08:13:51;37.20;;;19.90;;
58661;SDS011;44432;49.786;22.760;2023-03-01T08:16:21;41.60;;;22.10;;
58661;SDS011;44432;49.786;22.760;2023-03-01T08:19:06;36.90;;;20.30;;
58661;SDS011;44432;49.786;22.760;2023-03-01T08:21:38;36.30;;;20.80;;
58661;SDS011;44432;49.786;22.760;2023-03-01T08:24:09;37.60;;;19.40;;
58661;SDS011;44432;49.786;22.760;2023-03-01T08:26:40;34.40;;;19.70;;
58661;SDS011;44432;49.786;22.760;2023-03-01T08:29:11;45.20;;;18.50;;
58661;SDS011;44432;49.786;22.760;2023-03-01T08:31:42;34.90;;;19.90;;
58661;SDS011;44432;49.786;22.760;2023-03-01T08:34:13;38.00;;;21.00;;
58661;SDS011;44432;49.786;22.760;2023-03-01T08:36:45;34.20;;;20.10;;
58661;SDS011;44432;49.786;22.760;2023-03-01T08:39:19;33.30;;;18.50;;
58661;SDS011;44432;49.786;22.760;2023-03-01T08:41:50;33.70;;;19.50;;
58661;SDS011;44432;49.786;22.760;2023-03-01T08:44:21;35.50;;;19.80;;
58661;SDS011;44432;49.786;22.760;2023-03-01T08:46:52;31.90;;;20.40;;
58661;SDS011;44432;49.786;22.760;2023-03-01T08:49:23;32.90;;;18.00;;
58661;SDS011;44432;49.786;22.760;2023-03-01T08:51:54;28.90;;;17.20;;
58661;SDS011;44432;49.786;22.760;2023-03-01T08:54:24;31.00;;;18.60;;
58661;SDS011;44432;49.786;22.760;2023-03-01T08:56:56;40.00;;;21.00;;
58661;SDS011;44432;49.786;22.760;2023-03-01T08:59:26;32.80;;;18.60;;
58661;SDS011;44432;49.786;22.760;2023-03-01T09:01:57;34.70;;;19.90;;
58661;SDS011;44432;49.786;22.760;2023-03-01T09:04:28;32.00;;;18.20;;
58661;SDS011;44432;49.786;22.760;2023-03-01T09:07:01;29.00;;;17.70;;
58661;SDS011;44432;49.786;22.760;2023-03-01T09:09:31;32.40;;;19.30;;
58661;SDS011;44432;49.786;22.760;2023-03-01T09:12:02;29.20;;;18.20;;
58661;SDS011;44432;49.786;22.760;2023-03-01T09:14:33;26.40;;;15.90;;
58661;SDS011;44432;49.786;22.760;2023-03-01T09:17:05;25.40;;;14.90;;
58661;SDS011;44432;49.786;22.760;2023-03-01T09:19:36;23.70;;;13.80;;
58661;SDS011;44432;49.786;22.760;2023-03-01T09:22:07;23.70;;;13.80;;
58661;SDS011;44432;49.786;22.760;2023-03-01T09:24:38;33.30;;;16.40;;
58661;SDS011;44432;49.786;22.760;2023-03-01T09:27:08;18.80;;;11.60;;
58661;SDS011;44432;49.786;22.760;2023-03-01T09:29:40;20.00;;;12.90;;
58661;SDS011;44432;49.786;22.760;2023-03-01T09:32:11;21.20;;;12.10;;
58661;SDS011;44432;49.786;22.760;2023-03-01T09:34:41;21.60;;;12.70;;
58661;SDS011;44432;49.786;22.760;2023-03-01T09:37:32;21.00;;;13.00;;
58661;SDS011;44432;49.786;22.760;2023-03-01T09:40:06;22.20;;;14.40;;
58661;SDS011;44432;49.786;22.760;2023-03-01T09:42:47;21.70;;;14.70;;
58661;SDS011;44432;49.786;22.760;2023-03-01T09:45:32;26.10;;;17.00;;
58661;SDS011;44432;49.786;22.760;2023-03-01T09:48:04;26.80;;;15.20;;
58661;SDS011;44432;49.786;22.760;2023-03-01T09:50:40;21.90;;;14.00;;
58661;SDS011;44432;49.786;22.760;2023-03-01T09:53:15;20.80;;;13.90;;
58661;SDS011;44432;49.786;22.760;2023-03-01T09:55:48;24.50;;;14.00;;
58661;SDS011;44432;49.786;22.760;2023-03-01T10:01:14;22.50;;;13.90;;
58661;SDS011;44432;49.786;22.760;2023-03-01T10:04:03;20.80;;;12.60;;
58661;SDS011;44432;49.786;22.760;2023-03-01T10:06:43;25.90;;;13.70;;
58661;SDS011;44432;49.786;22.760;2023-03-01T10:09:20;26.70;;;14.10;;
58661;SDS011;44432;49.786;22.760;2023-03-01T10:11:52;25.20;;;14.80;;
58661;SDS011;44432;49.786;22.760;2023-03-01T10:14:28;28.60;;;16.00;;
58661;SDS011;44432;49.786;22.760;2023-03-01T10:17:03;28.40;;;15.60;;
58661;SDS011;44432;49.786;22.760;2023-03-01T10:19:40;27.80;;;18.20;;
58661;SDS011;44432;49.786;22.760;2023-03-01T10:22:13;25.70;;;15.10;;
58661;SDS011;44432;49.786;22.760;2023-03-01T10:24:45;24.60;;;15.10;;
58661;SDS011;44432;49.786;22.760;2023-03-01T10:27:17;25.70;;;14.90;;
58661;SDS011;44432;49.786;22.760;2023-03-01T10:29:54;22.30;;;12.50;;
58661;SDS011;44432;49.786;22.760;2023-03-01T10:32:34;20.00;;;13.50;;
58661;SDS011;44432;49.786;22.760;2023-03-01T10:35:16;22.40;;;12.90;;
58661;SDS011;44432;49.786;22.760;2023-03-01T10:38:01;49.80;;;25.30;;
58661;SDS011;44432;49.786;22.760;2023-03-01T10:40:34;32.40;;;18.00;;
58661;SDS011;44432;49.786;22.760;2023-03-01T10:43:18;37.90;;;18.60;;
58661;SDS011;44432;49.786;22.760;2023-03-01T10:45:50;26.70;;;15.70;;
58661;SDS011;44432;49.786;22.760;2023-03-01T10:48:21;33.40;;;15.80;;
58661;SDS011;44432;49.786;22.760;2023-03-01T10:51:06;23.70;;;13.80;;
58661;SDS011;44432;49.786;22.760;2023-03-01T10:53:49;20.10;;;13.20;;
58661;SDS011;44432;49.786;22.760;2023-03-01T10:56:20;23.90;;;15.10;;
58661;SDS011;44432;49.786;22.760;2023-03-01T10:58:59;24.30;;;15.10;;
58661;SDS011;44432;49.786;22.760;2023-03-01T11:01:32;25.00;;;16.10;;
58661;SDS011;44432;49.786;22.760;2023-03-01T11:04:09;29.20;;;17.20;;
58661;SDS011;44432;49.786;22.760;2023-03-01T11:06:43;27.30;;;17.00;;
58661;SDS011;44432;49.786;22.760;2023-03-01T11:09:26;28.80;;;18.20;;
58661;SDS011;44432;49.786;22.760;2023-03-01T11:12:13;28.70;;;17.30;;
58661;SDS011;44432;49.786;22.760;2023-03-01T11:14:47;34.80;;;19.70;;
58661;SDS011;44432;49.786;22.760;2023-03-01T11:17:23;27.10;;;16.90;;
58661;SDS011;44432;49.786;22.760;2023-03-01T11:20:05;25.50;;;17.20;;
58661;SDS011;44432;49.786;22.760;2023-03-01T11:22:53;26.10;;;16.20;;
58661;SDS011;44432;49.786;22.760;2023-03-01T11:25:27;27.60;;;16.80;;
58661;SDS011;44432;49.786;22.760;2023-03-01T11:28:03;26.00;;;16.30;;
58661;SDS011;44432;49.786;22.760;2023-03-01T11:30:38;22.20;;;14.70;;
58661;SDS011;44432;49.786;22.760;2023-03-01T11:33:18;19.60;;;12.10;;
58661;SDS011;44432;49.786;22.760;2023-03-01T11:36:01;20.00;;;11.00;;
58661;SDS011;44432;49.786;22.760;2023-03-01T11:38:35;21.90;;;13.20;;
58661;SDS011;44432;49.786;22.760;2023-03-01T11:41:08;17.00;;;11.00;;
58661;SDS011;44432;49.786;22.760;2023-03-01T11:43:49;17.80;;;11.00;;
58661;SDS011;44432;49.786;22.760;2023-03-01T11:46:45;19.80;;;12.10;;
58661;SDS011;44432;49.786;22.760;2023-03-01T11:49:31;14.90;;;8.50;;
58661;SDS011;44432;49.786;22.760;2023-03-01T11:52:18;13.00;;;8.70;;
58661;SDS011;44432;49.786;22.760;2023-03-01T11:55:00;15.80;;;9.20;;
58661;SDS011;44432;49.786;22.760;2023-03-01T11:57:46;17.00;;;9.80;;
58661;SDS011;44432;49.786;22.760;2023-03-01T12:00:34;16.10;;;9.60;;
58661;SDS011;44432;49.786;22.760;2023-03-01T12:03:32;19.40;;;10.60;;
58661;SDS011;44432;49.786;22.760;2023-03-01T12:06:14;14.10;;;8.30;;
58661;SDS011;44432;49.786;22.760;2023-03-01T12:08:59;16.40;;;9.30;;
58661;SDS011;44432;49.786;22.760;2023-03-01T12:11:39;14.00;;;8.10;;
58661;SDS011;44432;49.786;22.760;2023-03-01T12:17:23;20.80;;;11.20;;
58661;SDS011;44432;49.786;22.760;2023-03-01T12:20:17;16.40;;;9.10;;
58661;SDS011;44432;49.786;22.760;2023-03-01T12:23:01;16.00;;;9.20;;
58661;SDS011;44432;49.786;22.760;2023-03-01T12:25:46;15.60;;;10.10;;
58661;SDS011;44432;49.786;22.760;2023-03-01T12:28:26;15.00;;;9.40;;
58661;SDS011;44432;49.786;22.760;2023-03-01T12:31:10;17.30;;;11.10;;
58661;SDS011;44432;49.786;22.760;2023-03-01T12:33:59;17.20;;;11.40;;
58661;SDS011;44432;49.786;22.760;2023-03-01T12:36:46;19.20;;;12.10;;
58661;SDS011;44432;49.786;22.760;2023-03-01T12:39:35;23.30;;;12.70;;
58661;SDS011;44432;49.786;22.760;2023-03-01T12:42:19;20.10;;;11.60;;
58661;SDS011;44432;49.786;22.760;2023-03-01T12:48:06;20.80;;;13.00;;
58661;SDS011;44432;49.786;22.760;2023-03-01T12:50:47;27.30;;;15.00;;
58661;SDS011;44432;49.786;22.760;2023-03-01T12:53:21;23.10;;;14.00;;
58661;SDS011;44432;49.786;22.760;2023-03-01T12:55:54;29.70;;;14.50;;
58661;SDS011;44432;49.786;22.760;2023-03-01T12:58:29;21.10;;;13.40;;
58661;SDS011;44432;49.786;22.760;2023-03-01T13:01:08;19.80;;;12.50;;
58661;SDS011;44432;49.786;22.760;2023-03-01T13:04:00;23.10;;;11.40;;
58661;SDS011;44432;49.786;22.760;2023-03-01T13:06:43;21.50;;;11.40;;
58661;SDS011;44432;49.786;22.760;2023-03-01T13:09:25;20.80;;;11.10;;
58661;SDS011;44432;49.786;22.760;2023-03-01T13:12:03;20.60;;;12.20;;
58661;SDS011;44432;49.786;22.760;2023-03-01T13:15:01;24.40;;;13.60;;
58661;SDS011;44432;49.786;22.760;2023-03-01T13:17:39;24.30;;;14.70;;
58661;SDS011;44432;49.786;22.760;2023-03-01T13:20:15;28.30;;;14.90;;
58661;SDS011;44432;49.786;22.760;2023-03-01T13:22:48;23.60;;;14.80;;
58661;SDS011;44432;49.786;22.760;2023-03-01T13:25:32;23.30;;;14.00;;
58661;SDS011;44432;49.786;22.760;2023-03-01T13:31:05;28.70;;;16.30;;
58661;SDS011;44432;49.786;22.760;2023-03-01T13:33:41;28.00;;;16.50;;
58661;SDS011;44432;49.786;22.760;2023-03-01T13:39:30;26.20;;;16.00;;
58661;SDS011;44432;49.786;22.760;2023-03-01T13:45:00;30.20;;;17.00;;
58661;SDS011;44432;49.786;22.760;2023-03-01T13:47:38;25.90;;;16.60;;
58661;SDS011;44432;49.786;22.760;2023-03-01T13:50:16;26.90;;;17.70;;
58661;SDS011;44432;49.786;22.760;2023-03-01T13:52:52;29.50;;;18.10;;
58661;SDS011;44432;49.786;22.760;2023-03-01T13:55:30;31.20;;;20.20;;
58661;SDS011;44432;49.786;22.760;2023-03-01T13:58:13;30.50;;;17.60;;
58661;SDS011;44432;49.786;22.760;2023-03-01T14:00:54;32.50;;;18.80;;
58661;SDS011;44432;49.786;22.760;2023-03-01T14:03:27;31.80;;;19.70;;
58661;SDS011;44432;49.786;22.760;2023-03-01T14:06:06;28.70;;;17.80;;
58661;SDS011;44432;49.786;22.760;2023-03-01T14:08:41;31.60;;;19.20;;
58661;SDS011;44432;49.786;22.760;2023-03-01T14:14:29;32.40;;;19.60;;
58661;SDS011;44432;49.786;22.760;2023-03-01T14:17:12;31.60;;;16.80;;
58661;SDS011;44432;49.786;22.760;2023-03-01T14:19:58;28.70;;;17.40;;
58661;SDS011;44432;49.786;22.760;2023-03-01T14:22:33;30.20;;;17.60;;
58661;SDS011;44432;49.786;22.760;2023-03-01T14:25:14;29.60;;;18.00;;
58661;SDS011;44432;49.786;22.760;2023-03-01T14:27:52;27.00;;;17.50;;
58661;SDS011;44432;49.786;22.760;2023-03-01T14:30:27;30.70;;;19.40;;
58661;SDS011;44432;49.786;22.760;2023-03-01T14:33:04;27.70;;;18.90;;
58661;SDS011;44432;49.786;22.760;2023-03-01T14:35:53;29.20;;;17.90;;
58661;SDS011;44432;49.786;22.760;2023-03-01T14:38:29;32.70;;;17.20;;
58661;SDS011;44432;49.786;22.760;2023-03-01T14:41:03;28.70;;;17.10;;
58661;SDS011;44432;49.786;22.760;2023-03-01T14:43:36;27.50;;;16.30;;
58661;SDS011;44432;49.786;22.760;2023-03-01T14:46:18;30.20;;;18.40;;
58661;SDS011;44432;49.786;22.760;2023-03-01T14:48:53;34.50;;;18.90;;
58661;SDS011;44432;49.786;22.760;2023-03-01T14:51:29;31.10;;;19.20;;
58661;SDS011;44432;49.786;22.760;2023-03-01T14:54:04;34.60;;;18.60;;
58661;SDS011;44432;49.786;22.760;2023-03-01T14:56:48;35.60;;;20.00;;
58661;SDS011;44432;49.786;22.760;2023-03-01T14:59:21;40.00;;;22.00;;
58661;SDS011;44432;49.786;22.760;2023-03-01T15:01:53;36.30;;;20.60;;
58661;SDS011;44432;49.786;22.760;2023-03-01T15:04:27;30.30;;;17.90;;
58661;SDS011;44432;49.786;22.760;2023-03-01T15:06:59;32.00;;;18.10;;
58661;SDS011;44432;49.786;22.760;2023-03-01T15:09:32;34.10;;;20.20;;
58661;SDS011;44432;49.786;22.760;2023-03-01T15:15:22;32.90;;;18.00;;
58661;SDS011;44432;49.786;22.760;2023-03-01T15:18:01;27.40;;;17.30;;